SABESULS

Guest
Details From SABE - Aeroparque Jorge Newbery
To SULS - CAPITAN CORBETA C A CURBELO INTL
Flight Number -
Tags generated
Created
Modified
Stats Distance 165 nm / 305 km
Max Altitude 15,500 ft / 4,724 m
Waypoints 3
Social Downloads 0
Likes 0
Share VATSIM

Download

Looking for another format? Having issues loading an existing format? Contact us
Advertisement - Login to hide

Notes

Basic altitude profile: - Ascent Rate: 2500ft/min - Ascent Speed: 250kts - Cruise Altitude: 19000ft - Cruise Speed: 440kts - Descent Rate: 1500ft/min - Descent Speed: 250kts Options: - Use NATs: no - Use PACOTS: no - Use low airways: yes - Use high airways: yes

Route

SABE BERTA SULS

ID Type Via Altitude Latitude Longitude Leg Dist Tot Dist Heading (true) Name
O SABE APT - 0 ft / 0 m -34.55941˚ -58.41575˚ - 0 nm - Aeroparque Jorge Newbery
BERTA FIX - 15,500 ft / 4,724 m -34.70056˚ -56.64889˚ 87 nm 87 nm 96° / 95° -
O SULS APT - 0 ft / 0 m -34.85716˚ -55.09769˚ 77 nm 164 nm 97° / 97° CAPITAN CORBETA C A CURBELO INTL

Altitude Profile

Advertisement - Login to hide

Weather


0- 5 10 15 20 25 30 35+ Temperature / ° C

Clouds and Precipitation
Forecast for 2017-12-16 00:00 UTC. Updated 15 minutes ago

Ground ~20,000 ft ~40,000 ft Winds

SABE

Details ICAO SABE (AEP)
Name Aeroparque Jorge Newbery
Region Argentina
Timezone Unknown (UTC+0.0)
Stats Elevation 17 ft / 5 m (AMSL)
Location -34.559414° -58.415749°
Runways 1
Magnetic Variation 8.981° W

METAR

SABE 152300Z 34007KT CAVOK 30/18 Q1005

Decode

TAF

TAF SABE 151700Z 1518/1618 03010KT CAVOK TX35/1618Z TN25/1608Z BECMG 1609/1611 02015G30KT BECMG 1615/1617 SCT035

Decode

Departure Runways

ID Width Length Bearing (true) Bearing (mag) Surface Threshold Offset Overrun Length
13 131 ft / 40 m 6,882 ft / 2,098 m 123.87° 132.85° Concrete 0 ft / 0 m 791 ft / 241 m
31 131 ft / 40 m 6,882 ft / 2,098 m 303.86° 312.84° Concrete 991 ft / 302 m 0 ft / 0 m

SULS

Details ICAO SULS (PDP)
Name CAPITAN CORBETA C A CURBELO INTL
Region Uruguay
Timezone America/Montevideo (UTC-3.0)
Stats Elevation 95 ft / 29 m (AMSL)
Location -34.857160° -55.097687°
Runways 2
Magnetic Variation 11.554° W

METAR

SULS 152300Z 07006KT CAVOK 26/10 Q1007

Decode

TAF

SULS 151730Z 1518/1618 14012KT 9999 FEW033TCU SCT200 TN36/1618Z TN23/1609Z BECMG 1600/1604 010G20KT CAVOK

Decode

Destination Runways

ID Width Length Bearing (true) Bearing (mag) Surface Threshold Offset Overrun Length
01 125 ft / 38 m 5,263 ft / 1,604 m 357.91° 9.46° Asphalt 0 ft / 0 m 0 ft / 0 m
08 148 ft / 45 m 6,991 ft / 2,131 m 72.39° 83.94° Asphalt 0 ft / 0 m 0 ft / 0 m
19 125 ft / 38 m 5,263 ft / 1,604 m 177.91° 189.46° Asphalt 0 ft / 0 m 0 ft / 0 m
26 148 ft / 45 m 6,991 ft / 2,131 m 252.37° 263.92° Asphalt 0 ft / 0 m 0 ft / 0 m

Popular Alternatives